sensor_id;sensor_type;location;lat;lon;timestamp;P1;durP1;ratioP1;P2;durP2;ratioP2
10335;SDS011;5213;53.548;9.930;2023-03-14T00:01:35;6.82;;;3.00;;
10335;SDS011;5213;53.548;9.930;2023-03-14T00:04:03;4.60;;;3.20;;
10335;SDS011;5213;53.548;9.930;2023-03-14T00:06:29;5.28;;;3.47;;
10335;SDS011;5213;53.548;9.930;2023-03-14T00:08:56;7.65;;;3.38;;
10335;SDS011;5213;53.548;9.930;2023-03-14T00:11:22;5.50;;;3.25;;
10335;SDS011;5213;53.548;9.930;2023-03-14T00:13:49;4.32;;;3.33;;
10335;SDS011;5213;53.548;9.930;2023-03-14T00:16:15;6.13;;;3.60;;
10335;SDS011;5213;53.548;9.930;2023-03-14T00:18:41;6.25;;;3.72;;
10335;SDS011;5213;53.548;9.930;2023-03-14T00:21:07;6.15;;;3.40;;
10335;SDS011;5213;53.548;9.930;2023-03-14T00:23:35;7.13;;;3.13;;
10335;SDS011;5213;53.548;9.930;2023-03-14T00:26:01;6.85;;;3.40;;
10335;SDS011;5213;53.548;9.930;2023-03-14T00:28:28;5.90;;;2.90;;
10335;SDS011;5213;53.548;9.930;2023-03-14T00:30:54;5.57;;;2.83;;
10335;SDS011;5213;53.548;9.930;2023-03-14T00:33:21;6.15;;;2.70;;
10335;SDS011;5213;53.548;9.930;2023-03-14T00:35:54;5.20;;;2.85;;
10335;SDS011;5213;53.548;9.930;2023-03-14T00:38:20;5.93;;;2.90;;
10335;SDS011;5213;53.548;9.930;2023-03-14T00:40:46;5.90;;;3.10;;
10335;SDS011;5213;53.548;9.930;2023-03-14T00:43:12;5.82;;;2.80;;
10335;SDS011;5213;53.548;9.930;2023-03-14T00:45:38;5.75;;;2.72;;
10335;SDS011;5213;53.548;9.930;2023-03-14T00:48:04;4.50;;;3.15;;
10335;SDS011;5213;53.548;9.930;2023-03-14T00:50:30;5.32;;;3.25;;
10335;SDS011;5213;53.548;9.930;2023-03-14T00:52:56;5.05;;;3.03;;
10335;SDS011;5213;53.548;9.930;2023-03-14T00:55:23;7.40;;;3.10;;
10335;SDS011;5213;53.548;9.930;2023-03-14T00:57:49;8.05;;;3.17;;
10335;SDS011;5213;53.548;9.930;2023-03-14T01:00:15;6.57;;;2.85;;
10335;SDS011;5213;53.548;9.930;2023-03-14T01:02:41;7.22;;;3.33;;
10335;SDS011;5213;53.548;9.930;2023-03-14T01:05:08;8.27;;;3.28;;
10335;SDS011;5213;53.548;9.930;2023-03-14T01:07:35;9.15;;;3.17;;
10335;SDS011;5213;53.548;9.930;2023-03-14T01:10:01;9.25;;;3.10;;
10335;SDS011;5213;53.548;9.930;2023-03-14T01:12:27;9.50;;;2.97;;
10335;SDS011;5213;53.548;9.930;2023-03-14T01:14:53;6.20;;;2.97;;
10335;SDS011;5213;53.548;9.930;2023-03-14T01:17:19;4.97;;;3.03;;
10335;SDS011;5213;53.548;9.930;2023-03-14T01:19:46;4.13;;;3.35;;
10335;SDS011;5213;53.548;9.930;2023-03-14T01:22:12;6.35;;;3.13;;
10335;SDS011;5213;53.548;9.930;2023-03-14T01:24:38;4.72;;;3.10;;
10335;SDS011;5213;53.548;9.930;2023-03-14T01:27:04;6.65;;;3.05;;
10335;SDS011;5213;53.548;9.930;2023-03-14T01:29:30;5.72;;;2.80;;
10335;SDS011;5213;53.548;9.930;2023-03-14T01:31:56;4.50;;;2.55;;
10335;SDS011;5213;53.548;9.930;2023-03-14T01:34:22;8.27;;;3.03;;
10335;SDS011;5213;53.548;9.930;2023-03-14T01:36:48;8.35;;;2.88;;
10335;SDS011;5213;53.548;9.930;2023-03-14T01:39:14;5.32;;;2.90;;
10335;SDS011;5213;53.548;9.930;2023-03-14T01:41:41;6.57;;;2.75;;
10335;SDS011;5213;53.548;9.930;2023-03-14T01:44:10;7.85;;;3.00;;
10335;SDS011;5213;53.548;9.930;2023-03-14T01:46:40;8.75;;;2.95;;
10335;SDS011;5213;53.548;9.930;2023-03-14T01:49:15;4.75;;;3.15;;
10335;SDS011;5213;53.548;9.930;2023-03-14T01:51:44;6.95;;;3.30;;
10335;SDS011;5213;53.548;9.930;2023-03-14T01:54:23;8.55;;;3.45;;
10335;SDS011;5213;53.548;9.930;2023-03-14T01:57:25;6.00;;;3.47;;
10335;SDS011;5213;53.548;9.930;2023-03-14T01:59:46;4.07;;;3.05;;
10335;SDS011;5213;53.548;9.930;2023-03-14T02:02:13;6.28;;;3.22;;
10335;SDS011;5213;53.548;9.930;2023-03-14T02:04:41;6.05;;;3.13;;
10335;SDS011;5213;53.548;9.930;2023-03-14T02:07:09;7.90;;;3.45;;
10335;SDS011;5213;53.548;9.930;2023-03-14T02:09:38;5.07;;;3.22;;
10335;SDS011;5213;53.548;9.930;2023-03-14T02:12:05;5.65;;;3.30;;
10335;SDS011;5213;53.548;9.930;2023-03-14T02:14:32;9.52;;;3.40;;
10335;SDS011;5213;53.548;9.930;2023-03-14T02:16:58;7.38;;;3.10;;
10335;SDS011;5213;53.548;9.930;2023-03-14T02:22:18;6.88;;;4.03;;
10335;SDS011;5213;53.548;9.930;2023-03-14T02:24:46;7.40;;;3.65;;
10335;SDS011;5213;53.548;9.930;2023-03-14T02:27:18;8.18;;;3.45;;
10335;SDS011;5213;53.548;9.930;2023-03-14T02:32:13;7.05;;;3.55;;
10335;SDS011;5213;53.548;9.930;2023-03-14T02:34:40;8.02;;;3.90;;
10335;SDS011;5213;53.548;9.930;2023-03-14T02:37:08;6.13;;;3.67;;
10335;SDS011;5213;53.548;9.930;2023-03-14T02:39:36;6.85;;;3.60;;
10335;SDS011;5213;53.548;9.930;2023-03-14T02:42:02;5.88;;;3.47;;
10335;SDS011;5213;53.548;9.930;2023-03-14T02:44:28;6.68;;;3.97;;
10335;SDS011;5213;53.548;9.930;2023-03-14T02:46:54;8.10;;;4.47;;
10335;SDS011;5213;53.548;9.930;2023-03-14T02:49:20;7.32;;;4.50;;
10335;SDS011;5213;53.548;9.930;2023-03-14T02:51:47;4.63;;;3.60;;
10335;SDS011;5213;53.548;9.930;2023-03-14T02:54:14;7.15;;;4.32;;
10335;SDS011;5213;53.548;9.930;2023-03-14T02:56:41;6.03;;;3.92;;
10335;SDS011;5213;53.548;9.930;2023-03-14T02:59:07;6.43;;;4.10;;
10335;SDS011;5213;53.548;9.930;2023-03-14T03:01:33;9.63;;;3.95;;
10335;SDS011;5213;53.548;9.930;2023-03-14T03:03:59;5.30;;;3.72;;
10335;SDS011;5213;53.548;9.930;2023-03-14T03:06:26;5.07;;;3.58;;
10335;SDS011;5213;53.548;9.930;2023-03-14T03:08:52;3.95;;;3.00;;
10335;SDS011;5213;53.548;9.930;2023-03-14T03:11:18;5.03;;;3.45;;
10335;SDS011;5213;53.548;9.930;2023-03-14T03:13:44;6.78;;;3.70;;
10335;SDS011;5213;53.548;9.930;2023-03-14T03:16:10;6.60;;;3.78;;
10335;SDS011;5213;53.548;9.930;2023-03-14T03:18:38;5.53;;;3.28;;
10335;SDS011;5213;53.548;9.930;2023-03-14T03:21:04;5.38;;;3.20;;
10335;SDS011;5213;53.548;9.930;2023-03-14T03:23:32;5.03;;;3.67;;
10335;SDS011;5213;53.548;9.930;2023-03-14T03:25:58;4.45;;;3.33;;
10335;SDS011;5213;53.548;9.930;2023-03-14T03:28:24;5.68;;;3.40;;
10335;SDS011;5213;53.548;9.930;2023-03-14T03:30:51;6.28;;;3.47;;
10335;SDS011;5213;53.548;9.930;2023-03-14T03:33:17;6.25;;;3.22;;
10335;SDS011;5213;53.548;9.930;2023-03-14T03:35:47;4.63;;;3.70;;
10335;SDS011;5213;53.548;9.930;2023-03-14T03:38:13;5.00;;;3.13;;
10335;SDS011;5213;53.548;9.930;2023-03-14T03:40:39;8.35;;;3.53;;
10335;SDS011;5213;53.548;9.930;2023-03-14T03:43:05;3.30;;;2.80;;
10335;SDS011;5213;53.548;9.930;2023-03-14T03:45:31;4.63;;;3.28;;
10335;SDS011;5213;53.548;9.930;2023-03-14T03:47:58;5.93;;;3.22;;
10335;SDS011;5213;53.548;9.930;2023-03-14T03:50:24;5.50;;;3.05;;
10335;SDS011;5213;53.548;9.930;2023-03-14T03:52:50;6.25;;;3.22;;
10335;SDS011;5213;53.548;9.930;2023-03-14T03:55:16;8.18;;;3.92;;
10335;SDS011;5213;53.548;9.930;2023-03-14T03:57:42;6.68;;;3.63;;
10335;SDS011;5213;53.548;9.930;2023-03-14T04:00:09;5.80;;;3.50;;
10335;SDS011;5213;53.548;9.930;2023-03-14T04:02:37;5.75;;;3.13;;
10335;SDS011;5213;53.548;9.930;2023-03-14T04:05:03;6.32;;;3.00;;
10335;SDS011;5213;53.548;9.930;2023-03-14T04:07:31;6.72;;;3.38;;
10335;SDS011;5213;53.548;9.930;2023-03-14T04:09:57;6.68;;;3.40;;
10335;SDS011;5213;53.548;9.930;2023-03-14T04:12:23;5.38;;;3.30;;
10335;SDS011;5213;53.548;9.930;2023-03-14T04:14:49;9.48;;;3.65;;
10335;SDS011;5213;53.548;9.930;2023-03-14T04:17:15;5.18;;;3.55;;
10335;SDS011;5213;53.548;9.930;2023-03-14T04:19:41;4.65;;;3.20;;
10335;SDS011;5213;53.548;9.930;2023-03-14T04:22:08;5.35;;;3.30;;
10335;SDS011;5213;53.548;9.930;2023-03-14T04:24:34;6.47;;;3.33;;
10335;SDS011;5213;53.548;9.930;2023-03-14T04:27:00;5.80;;;3.28;;
10335;SDS011;5213;53.548;9.930;2023-03-14T04:29:26;6.65;;;3.35;;
10335;SDS011;5213;53.548;9.930;2023-03-14T04:31:52;5.82;;;4.07;;
10335;SDS011;5213;53.548;9.930;2023-03-14T04:34:18;6.65;;;4.68;;
10335;SDS011;5213;53.548;9.930;2023-03-14T04:36:44;6.45;;;4.20;;
10335;SDS011;5213;53.548;9.930;2023-03-14T04:39:11;8.27;;;4.65;;
10335;SDS011;5213;53.548;9.930;2023-03-14T04:41:37;9.25;;;4.22;;
10335;SDS011;5213;53.548;9.930;2023-03-14T04:44:03;4.72;;;3.63;;
10335;SDS011;5213;53.548;9.930;2023-03-14T04:46:29;5.13;;;3.40;;
10335;SDS011;5213;53.548;9.930;2023-03-14T04:48:55;8.25;;;3.90;;
10335;SDS011;5213;53.548;9.930;2023-03-14T04:51:21;5.47;;;3.60;;
10335;SDS011;5213;53.548;9.930;2023-03-14T04:53:48;5.68;;;3.53;;
10335;SDS011;5213;53.548;9.930;2023-03-14T04:56:14;5.50;;;3.47;;
10335;SDS011;5213;53.548;9.930;2023-03-14T04:58:40;5.15;;;3.78;;
10335;SDS011;5213;53.548;9.930;2023-03-14T05:01:06;8.30;;;4.10;;
10335;SDS011;5213;53.548;9.930;2023-03-14T05:03:32;6.85;;;4.13;;
10335;SDS011;5213;53.548;9.930;2023-03-14T05:06:00;7.30;;;3.97;;
10335;SDS011;5213;53.548;9.930;2023-03-14T05:08:27;6.75;;;3.70;;
10335;SDS011;5213;53.548;9.930;2023-03-14T05:10:53;6.68;;;3.75;;
10335;SDS011;5213;53.548;9.930;2023-03-14T05:13:20;4.68;;;2.80;;
10335;SDS011;5213;53.548;9.930;2023-03-14T05:15:46;3.50;;;2.40;;
10335;SDS011;5213;53.548;9.930;2023-03-14T05:18:12;4.32;;;3.05;;
10335;SDS011;5213;53.548;9.930;2023-03-14T05:20:38;4.95;;;2.70;;
10335;SDS011;5213;53.548;9.930;2023-03-14T05:23:04;2.83;;;2.55;;
10335;SDS011;5213;53.548;9.930;2023-03-14T05:25:30;5.75;;;2.90;;
10335;SDS011;5213;53.548;9.930;2023-03-14T05:27:56;4.30;;;2.90;;
10335;SDS011;5213;53.548;9.930;2023-03-14T05:30:22;3.40;;;3.10;;
10335;SDS011;5213;53.548;9.930;2023-03-14T05:32:48;3.97;;;3.22;;
10335;SDS011;5213;53.548;9.930;2023-03-14T05:35:14;5.68;;;3.15;;
10335;SDS011;5213;53.548;9.930;2023-03-14T05:37:40;4.72;;;3.22;;
10335;SDS011;5213;53.548;9.930;2023-03-14T05:40:06;5.35;;;3.85;;
10335;SDS011;5213;53.548;9.930;2023-03-14T05:42:33;7.45;;;4.10;;
10335;SDS011;5213;53.548;9.930;2023-03-14T05:44:59;6.05;;;4.05;;
10335;SDS011;5213;53.548;9.930;2023-03-14T05:47:25;9.70;;;4.85;;
10335;SDS011;5213;53.548;9.930;2023-03-14T05:49:51;5.10;;;4.60;;
10335;SDS011;5213;53.548;9.930;2023-03-14T05:52:17;7.35;;;4.97;;
10335;SDS011;5213;53.548;9.930;2023-03-14T05:54:43;7.50;;;4.47;;
10335;SDS011;5213;53.548;9.930;2023-03-14T05:57:09;5.13;;;4.57;;
10335;SDS011;5213;53.548;9.930;2023-03-14T05:59:36;7.32;;;4.95;;
10335;SDS011;5213;53.548;9.930;2023-03-14T06:02:02;7.35;;;4.75;;
10335;SDS011;5213;53.548;9.930;2023-03-14T06:04:28;7.18;;;5.20;;
10335;SDS011;5213;53.548;9.930;2023-03-14T06:06:54;6.38;;;5.40;;
10335;SDS011;5213;53.548;9.930;2023-03-14T06:09:20;5.85;;;4.53;;
10335;SDS011;5213;53.548;9.930;2023-03-14T06:11:48;9.15;;;5.28;;
10335;SDS011;5213;53.548;9.930;2023-03-14T06:14:14;8.95;;;5.00;;
10335;SDS011;5213;53.548;9.930;2023-03-14T06:16:40;7.40;;;4.70;;
10335;SDS011;5213;53.548;9.930;2023-03-14T06:19:06;6.45;;;4.63;;
10335;SDS011;5213;53.548;9.930;2023-03-14T06:21:32;8.80;;;4.47;;
10335;SDS011;5213;53.548;9.930;2023-03-14T06:23:58;7.70;;;4.22;;
10335;SDS011;5213;53.548;9.930;2023-03-14T06:26:24;8.40;;;4.25;;
10335;SDS011;5213;53.548;9.930;2023-03-14T06:28:50;6.30;;;3.65;;
10335;SDS011;5213;53.548;9.930;2023-03-14T06:31:18;5.18;;;3.80;;
10335;SDS011;5213;53.548;9.930;2023-03-14T06:33:44;6.85;;;4.28;;
10335;SDS011;5213;53.548;9.930;2023-03-14T06:36:10;5.95;;;4.30;;
10335;SDS011;5213;53.548;9.930;2023-03-14T06:38:36;6.20;;;3.90;;
10335;SDS011;5213;53.548;9.930;2023-03-14T06:41:06;6.47;;;4.20;;
10335;SDS011;5213;53.548;9.930;2023-03-14T06:43:32;5.78;;;3.42;;
10335;SDS011;5213;53.548;9.930;2023-03-14T06:45:58;6.85;;;3.95;;
10335;SDS011;5213;53.548;9.930;2023-03-14T06:48:24;6.63;;;4.07;;
10335;SDS011;5213;53.548;9.930;2023-03-14T06:50:50;6.30;;;3.33;;
10335;SDS011;5213;53.548;9.930;2023-03-14T06:53:16;5.03;;;3.35;;
10335;SDS011;5213;53.548;9.930;2023-03-14T06:55:42;5.60;;;3.58;;
10335;SDS011;5213;53.548;9.930;2023-03-14T06:58:08;7.05;;;2.55;;
10335;SDS011;5213;53.548;9.930;2023-03-14T07:00:34;7.28;;;3.05;;
10335;SDS011;5213;53.548;9.930;2023-03-14T07:03:00;9.05;;;2.90;;
10335;SDS011;5213;53.548;9.930;2023-03-14T07:05:27;3.05;;;2.17;;
10335;SDS011;5213;53.548;9.930;2023-03-14T07:07:53;5.88;;;2.65;;
10335;SDS011;5213;53.548;9.930;2023-03-14T07:10:19;2.65;;;2.38;;
10335;SDS011;5213;53.548;9.930;2023-03-14T07:12:45;4.90;;;2.38;;
10335;SDS011;5213;53.548;9.930;2023-03-14T07:15:11;4.70;;;2.17;;
10335;SDS011;5213;53.548;9.930;2023-03-14T07:17:37;3.97;;;2.10;;
10335;SDS011;5213;53.548;9.930;2023-03-14T07:20:03;5.40;;;1.88;;
10335;SDS011;5213;53.548;9.930;2023-03-14T07:22:30;4.53;;;2.08;;
10335;SDS011;5213;53.548;9.930;2023-03-14T07:24:56;5.63;;;2.47;;
10335;SDS011;5213;53.548;9.930;2023-03-14T07:27:22;5.30;;;2.05;;
10335;SDS011;5213;53.548;9.930;2023-03-14T07:29:48;5.50;;;2.70;;
10335;SDS011;5213;53.548;9.930;2023-03-14T07:32:14;5.72;;;3.40;;
10335;SDS011;5213;53.548;9.930;2023-03-14T07:34:41;6.53;;;3.10;;
10335;SDS011;5213;53.548;9.930;2023-03-14T07:37:07;6.65;;;3.15;;
10335;SDS011;5213;53.548;9.930;2023-03-14T07:39:33;7.82;;;2.97;;
10335;SDS011;5213;53.548;9.930;2023-03-14T07:41:59;5.45;;;2.58;;
10335;SDS011;5213;53.548;9.930;2023-03-14T07:44:25;3.92;;;2.42;;
10335;SDS011;5213;53.548;9.930;2023-03-14T07:46:51;7.18;;;3.03;;
10335;SDS011;5213;53.548;9.930;2023-03-14T07:49:17;5.07;;;2.40;;
10335;SDS011;5213;53.548;9.930;2023-03-14T07:51:43;4.50;;;2.40;;
10335;SDS011;5213;53.548;9.930;2023-03-14T07:54:09;2.67;;;1.90;;
10335;SDS011;5213;53.548;9.930;2023-03-14T07:56:35;3.00;;;2.08;;
10335;SDS011;5213;53.548;9.930;2023-03-14T07:59:02;4.55;;;1.92;;
10335;SDS011;5213;53.548;9.930;2023-03-14T08:01:28;6.47;;;1.80;;
10335;SDS011;5213;53.548;9.930;2023-03-14T08:03:54;3.45;;;1.83;;
10335;SDS011;5213;53.548;9.930;2023-03-14T08:06:20;4.60;;;1.80;;
10335;SDS011;5213;53.548;9.930;2023-03-14T08:08:46;3.08;;;2.08;;
10335;SDS011;5213;53.548;9.930;2023-03-14T08:11:12;4.32;;;1.70;;
10335;SDS011;5213;53.548;9.930;2023-03-14T08:13:38;3.95;;;1.70;;
10335;SDS011;5213;53.548;9.930;2023-03-14T08:16:05;3.33;;;1.83;;
10335;SDS011;5213;53.548;9.930;2023-03-14T08:18:31;5.75;;;2.22;;
10335;SDS011;5213;53.548;9.930;2023-03-14T08:20:57;4.35;;;1.90;;
10335;SDS011;5213;53.548;9.930;2023-03-14T08:23:23;3.30;;;1.80;;
10335;SDS011;5213;53.548;9.930;2023-03-14T08:25:49;2.17;;;1.80;;
10335;SDS011;5213;53.548;9.930;2023-03-14T08:28:16;2.63;;;1.80;;
10335;SDS011;5213;53.548;9.930;2023-03-14T08:30:42;3.10;;;1.75;;
10335;SDS011;5213;53.548;9.930;2023-03-14T08:33:08;3.03;;;2.10;;
10335;SDS011;5213;53.548;9.930;2023-03-14T08:35:34;4.28;;;2.42;;
10335;SDS011;5213;53.548;9.930;2023-03-14T08:38:00;5.50;;;2.53;;
10335;SDS011;5213;53.548;9.930;2023-03-14T08:40:26;6.28;;;2.72;;
10335;SDS011;5213;53.548;9.930;2023-03-14T08:42:52;5.00;;;2.60;;
10335;SDS011;5213;53.548;9.930;2023-03-14T08:45:18;5.05;;;2.88;;
10335;SDS011;5213;53.548;9.930;2023-03-14T08:47:44;5.65;;;2.60;;
10335;SDS011;5213;53.548;9.930;2023-03-14T08:50:10;6.88;;;2.92;;
10335;SDS011;5213;53.548;9.930;2023-03-14T08:52:37;6.70;;;2.83;;
10335;SDS011;5213;53.548;9.930;2023-03-14T08:55:05;7.30;;;3.17;;
10335;SDS011;5213;53.548;9.930;2023-03-14T08:57:31;7.88;;;3.35;;
10335;SDS011;5213;53.548;9.930;2023-03-14T08:59:57;3.10;;;2.60;;
10335;SDS011;5213;53.548;9.930;2023-03-14T09:02:24;4.95;;;3.10;;
10335;SDS011;5213;53.548;9.930;2023-03-14T09:04:50;4.85;;;2.97;;
10335;SDS011;5213;53.548;9.930;2023-03-14T09:07:17;5.68;;;3.00;;
10335;SDS011;5213;53.548;9.930;2023-03-14T09:09:43;4.60;;;3.08;;
10335;SDS011;5213;53.548;9.930;2023-03-14T09:12:09;10.02;;;3.50;;
10335;SDS011;5213;53.548;9.930;2023-03-14T09:14:35;5.20;;;3.58;;
10335;SDS011;5213;53.548;9.930;2023-03-14T09:17:02;5.25;;;3.38;;
10335;SDS011;5213;53.548;9.930;2023-03-14T09:19:28;6.05;;;3.25;;
10335;SDS011;5213;53.548;9.930;2023-03-14T09:21:54;6.50;;;3.40;;
10335;SDS011;5213;53.548;9.930;2023-03-14T09:24:20;4.68;;;3.10;;
10335;SDS011;5213;53.548;9.930;2023-03-14T09:26:46;5.20;;;3.38;;
10335;SDS011;5213;53.548;9.930;2023-03-14T09:29:12;5.45;;;3.47;;
10335;SDS011;5213;53.548;9.930;2023-03-14T09:31:38;5.88;;;3.30;;
10335;SDS011;5213;53.548;9.930;2023-03-14T09:34:04;6.13;;;3.35;;
10335;SDS011;5213;53.548;9.930;2023-03-14T09:36:30;5.90;;;4.00;;
10335;SDS011;5213;53.548;9.930;2023-03-14T09:38:56;8.00;;;3.63;;
10335;SDS011;5213;53.548;9.930;2023-03-14T09:41:27;9.43;;;3.75;;
10335;SDS011;5213;53.548;9.930;2023-03-14T09:43:58;4.55;;;3.67;;
10335;SDS011;5213;53.548;9.930;2023-03-14T09:46:26;6.25;;;4.07;;
10335;SDS011;5213;53.548;9.930;2023-03-14T09:48:53;5.57;;;3.35;;
10335;SDS011;5213;53.548;9.930;2023-03-14T09:51:19;6.18;;;3.20;;
10335;SDS011;5213;53.548;9.930;2023-03-14T09:53:48;6.93;;;2.28;;
10335;SDS011;5213;53.548;9.930;2023-03-14T09:56:22;3.22;;;1.20;;
10335;SDS011;5213;53.548;9.930;2023-03-14T09:58:54;1.65;;;1.10;;
10335;SDS011;5213;53.548;9.930;2023-03-14T10:01:22;1.17;;;1.08;;
10335;SDS011;5213;53.548;9.930;2023-03-14T10:03:50;1.08;;;1.00;;
10335;SDS011;5213;53.548;9.930;2023-03-14T10:06:18;3.85;;;1.40;;
10335;SDS011;5213;53.548;9.930;2023-03-14T10:08:44;2.25;;;1.67;;
10335;SDS011;5213;53.548;9.930;2023-03-14T10:11:13;2.90;;;1.83;;
10335;SDS011;5213;53.548;9.930;2023-03-14T10:14:28;1.35;;;1.25;;
10335;SDS011;5213;53.548;9.930;2023-03-14T10:16:30;1.55;;;1.40;;
10335;SDS011;5213;53.548;9.930;2023-03-14T10:19:07;1.17;;;1.08;;
10335;SDS011;5213;53.548;9.930;2023-03-14T10:21:37;1.55;;;1.38;;
10335;SDS011;5213;53.548;9.930;2023-03-14T10:24:07;2.20;;;1.50;;
10335;SDS011;5213;53.548;9.930;2023-03-14T10:26:34;4.57;;;1.45;;
10335;SDS011;5213;53.548;9.930;2023-03-14T10:29:02;3.47;;;1.50;;
10335;SDS011;5213;53.548;9.930;2023-03-14T10:31:28;2.13;;;1.30;;
10335;SDS011;5213;53.548;9.930;2023-03-14T10:34:12;1.33;;;1.30;;
10335;SDS011;5213;53.548;9.930;2023-03-14T10:36:41;1.90;;;1.50;;
10335;SDS011;5213;53.548;9.930;2023-03-14T10:41:46;1.42;;;1.20;;
10335;SDS011;5213;53.548;9.930;2023-03-14T10:44:12;1.63;;;1.05;;
10335;SDS011;5213;53.548;9.930;2023-03-14T10:46:39;3.55;;;1.08;;
10335;SDS011;5213;53.548;9.930;2023-03-14T10:49:05;0.95;;;0.95;;
10335;SDS011;5213;53.548;9.930;2023-03-14T10:51:32;1.17;;;0.80;;
10335;SDS011;5213;53.548;9.930;2023-03-14T10:54:02;1.08;;;1.00;;
10335;SDS011;5213;53.548;9.930;2023-03-14T10:56:36;0.95;;;0.70;;
10335;SDS011;5213;53.548;9.930;2023-03-14T10:59:02;1.02;;;0.85;;
10335;SDS011;5213;53.548;9.930;2023-03-14T11:01:32;0.60;;;0.60;;
10335;SDS011;5213;53.548;9.930;2023-03-14T11:06:44;1.20;;;0.75;;
10335;SDS011;5213;53.548;9.930;2023-03-14T11:15:17;1.27;;;0.73;;
10335;SDS011;5213;53.548;9.930;2023-03-14T11:17:50;1.88;;;0.80;;
10335;SDS011;5213;53.548;9.930;2023-03-14T11:23:21;1.10;;;0.80;;
10335;SDS011;5213;53.548;9.930;2023-03-14T11:25:47;2.45;;;1.00;;
10335;SDS011;5213;53.548;9.930;2023-03-14T11:28:30;2.42;;;1.10;;
10335;SDS011;5213;53.548;9.930;2023-03-14T11:31:20;1.92;;;0.90;;
10335;SDS011;5213;53.548;9.930;2023-03-14T11:36:33;2.05;;;1.05;;
10335;SDS011;5213;53.548;9.930;2023-03-14T11:39:02;2.47;;;1.10;;
10335;SDS011;5213;53.548;9.930;2023-03-14T11:41:34;0.98;;;0.90;;
10335;SDS011;5213;53.548;9.930;2023-03-14T11:44:10;1.63;;;1.00;;
10335;SDS011;5213;53.548;9.930;2023-03-14T11:47:02;2.28;;;1.02;;
10335;SDS011;5213;53.548;9.930;2023-03-14T11:49:30;2.40;;;1.20;;
10335;SDS011;5213;53.548;9.930;2023-03-14T11:52:05;1.58;;;1.00;;
10335;SDS011;5213;53.548;9.930;2023-03-14T11:56:58;2.65;;;1.33;;
10335;SDS011;5213;53.548;9.930;2023-03-14T12:01:58;5.65;;;1.20;;
10335;SDS011;5213;53.548;9.930;2023-03-14T12:06:51;1.70;;;0.93;;
10335;SDS011;5213;53.548;9.930;2023-03-14T12:09:18;3.50;;;1.40;;
10335;SDS011;5213;53.548;9.930;2023-03-14T12:14:20;7.20;;;1.30;;
10335;SDS011;5213;53.548;9.930;2023-03-14T12:16:46;3.88;;;1.40;;
10335;SDS011;5213;53.548;9.930;2023-03-14T12:21:53;1.88;;;1.10;;
10335;SDS011;5213;53.548;9.930;2023-03-14T12:24:24;4.60;;;1.45;;
10335;SDS011;5213;53.548;9.930;2023-03-14T12:26:53;5.55;;;1.40;;
10335;SDS011;5213;53.548;9.930;2023-03-14T12:29:20;9.23;;;1.90;;
10335;SDS011;5213;53.548;9.930;2023-03-14T12:31:47;5.75;;;1.52;;
10335;SDS011;5213;53.548;9.930;2023-03-14T12:44:42;7.32;;;1.85;;
10335;SDS011;5213;53.548;9.930;2023-03-14T12:49:44;8.35;;;1.77;;
10335;SDS011;5213;53.548;9.930;2023-03-14T12:52:15;5.20;;;2.17;;
10335;SDS011;5213;53.548;9.930;2023-03-14T12:57:23;6.40;;;2.05;;
10335;SDS011;5213;53.548;9.930;2023-03-14T13:02:59;6.75;;;2.10;;
10335;SDS011;5213;53.548;9.930;2023-03-14T13:05:11;6.32;;;2.00;;
10335;SDS011;5213;53.548;9.930;2023-03-14T13:12:46;5.95;;;2.17;;
10335;SDS011;5213;53.548;9.930;2023-03-14T13:15:35;9.98;;;2.50;;
10335;SDS011;5213;53.548;9.930;2023-03-14T13:18:02;11.93;;;2.35;;
10335;SDS011;5213;53.548;9.930;2023-03-14T13:20:39;12.15;;;2.50;;
10335;SDS011;5213;53.548;9.930;2023-03-14T13:23:17;5.32;;;1.83;;
10335;SDS011;5213;53.548;9.930;2023-03-14T13:25:44;7.90;;;1.52;;
10335;SDS011;5213;53.548;9.930;2023-03-14T13:28:11;14.35;;;2.65;;
10335;SDS011;5213;53.548;9.930;2023-03-14T13:30:41;4.82;;;1.50;;
10335;SDS011;5213;53.548;9.930;2023-03-14T13:33:11;4.05;;;1.55;;
10335;SDS011;5213;53.548;9.930;2023-03-14T13:35:42;4.07;;;1.75;;
10335;SDS011;5213;53.548;9.930;2023-03-14T13:38:22;2.95;;;1.10;;
10335;SDS011;5213;53.548;9.930;2023-03-14T13:40:49;5.78;;;1.50;;
10335;SDS011;5213;53.548;9.930;2023-03-14T13:43:17;4.65;;;1.55;;
10335;SDS011;5213;53.548;9.930;2023-03-14T13:45:44;5.20;;;1.92;;
10335;SDS011;5213;53.548;9.930;2023-03-14T13:48:12;6.00;;;1.80;;
10335;SDS011;5213;53.548;9.930;2023-03-14T13:50:43;4.55;;;1.80;;
10335;SDS011;5213;53.548;9.930;2023-03-14T13:53:10;6.35;;;1.77;;
10335;SDS011;5213;53.548;9.930;2023-03-14T13:55:37;5.72;;;1.80;;
10335;SDS011;5213;53.548;9.930;2023-03-14T13:58:03;4.78;;;1.70;;
10335;SDS011;5213;53.548;9.930;2023-03-14T14:00:29;3.75;;;1.60;;
10335;SDS011;5213;53.548;9.930;2023-03-14T14:02:55;2.65;;;1.48;;
10335;SDS011;5213;53.548;9.930;2023-03-14T14:05:22;8.15;;;2.33;;
10335;SDS011;5213;53.548;9.930;2023-03-14T14:07:48;5.90;;;1.58;;
10335;SDS011;5213;53.548;9.930;2023-03-14T14:10:16;7.10;;;1.70;;
10335;SDS011;5213;53.548;9.930;2023-03-14T14:12:43;9.45;;;2.40;;
10335;SDS011;5213;53.548;9.930;2023-03-14T14:15:25;2.28;;;1.15;;
10335;SDS011;5213;53.548;9.930;2023-03-14T14:17:53;4.28;;;1.70;;
10335;SDS011;5213;53.548;9.930;2023-03-14T14:20:26;5.10;;;1.60;;
10335;SDS011;5213;53.548;9.930;2023-03-14T14:22:57;4.28;;;1.23;;
10335;SDS011;5213;53.548;9.930;2023-03-14T14:25:24;3.72;;;1.45;;
10335;SDS011;5213;53.548;9.930;2023-03-14T14:27:50;4.15;;;1.55;;
10335;SDS011;5213;53.548;9.930;2023-03-14T14:30:26;2.20;;;1.20;;
10335;SDS011;5213;53.548;9.930;2023-03-14T14:32:52;3.45;;;1.33;;
10335;SDS011;5213;53.548;9.930;2023-03-14T14:35:34;3.90;;;1.55;;
10335;SDS011;5213;53.548;9.930;2023-03-14T14:38:01;3.55;;;1.50;;
10335;SDS011;5213;53.548;9.930;2023-03-14T14:40:28;3.13;;;1.30;;
10335;SDS011;5213;53.548;9.930;2023-03-14T14:42:55;2.83;;;1.33;;
10335;SDS011;5213;53.548;9.930;2023-03-14T14:45:27;4.43;;;1.13;;
10335;SDS011;5213;53.548;9.930;2023-03-14T14:47:58;3.53;;;1.10;;
10335;SDS011;5213;53.548;9.930;2023-03-14T14:55:43;5.38;;;1.42;;
10335;SDS011;5213;53.548;9.930;2023-03-14T14:58:29;3.50;;;1.55;;
10335;SDS011;5213;53.548;9.930;2023-03-14T15:00:57;4.28;;;1.15;;
10335;SDS011;5213;53.548;9.930;2023-03-14T15:03:25;2.30;;;1.42;;
10335;SDS011;5213;53.548;9.930;2023-03-14T15:05:52;4.60;;;1.42;;
10335;SDS011;5213;53.548;9.930;2023-03-14T15:08:20;5.22;;;1.50;;
10335;SDS011;5213;53.548;9.930;2023-03-14T15:10:46;7.95;;;1.45;;
10335;SDS011;5213;53.548;9.930;2023-03-14T15:13:12;3.55;;;1.40;;
10335;SDS011;5213;53.548;9.930;2023-03-14T15:15:38;4.50;;;1.30;;
10335;SDS011;5213;53.548;9.930;2023-03-14T15:18:12;5.65;;;1.77;;
10335;SDS011;5213;53.548;9.930;2023-03-14T15:20:39;1.85;;;1.05;;
10335;SDS011;5213;53.548;9.930;2023-03-14T15:23:11;4.93;;;1.35;;
10335;SDS011;5213;53.548;9.930;2023-03-14T15:25:38;8.88;;;1.80;;
10335;SDS011;5213;53.548;9.930;2023-03-14T15:28:17;5.63;;;1.70;;
10335;SDS011;5213;53.548;9.930;2023-03-14T15:30:45;10.95;;;2.28;;
10335;SDS011;5213;53.548;9.930;2023-03-14T15:33:12;6.95;;;1.65;;
10335;SDS011;5213;53.548;9.930;2023-03-14T15:35:38;5.95;;;1.80;;
10335;SDS011;5213;53.548;9.930;2023-03-14T15:38:08;4.57;;;1.50;;
10335;SDS011;5213;53.548;9.930;2023-03-14T15:40:35;9.40;;;1.55;;
10335;SDS011;5213;53.548;9.930;2023-03-14T15:43:01;4.88;;;1.55;;
10335;SDS011;5213;53.548;9.930;2023-03-14T15:45:27;5.25;;;1.60;;
10335;SDS011;5213;53.548;9.930;2023-03-14T15:47:53;7.50;;;1.83;;
10335;SDS011;5213;53.548;9.930;2023-03-14T15:50:19;8.52;;;1.90;;
10335;SDS011;5213;53.548;9.930;2023-03-14T15:52:45;3.90;;;1.45;;
10335;SDS011;5213;53.548;9.930;2023-03-14T15:55:11;3.67;;;1.77;;
10335;SDS011;5213;53.548;9.930;2023-03-14T15:57:39;9.23;;;1.88;;
10335;SDS011;5213;53.548;9.930;2023-03-14T16:00:06;9.52;;;1.63;;
10335;SDS011;5213;53.548;9.930;2023-03-14T16:02:36;6.93;;;1.80;;
10335;SDS011;5213;53.548;9.930;2023-03-14T16:05:06;5.50;;;1.58;;
10335;SDS011;5213;53.548;9.930;2023-03-14T16:07:32;5.07;;;1.25;;